Time;durP1;ratioP1;P1;durP2;ratioP2;P2;SDS_P1;SDS_P2;PMS_P1;PMS_P2;Temp;Humidity;BMP_temperature;BMP_pressure;BME280_temperature;BME280_humidity;BME280_pressure;Samples;Min_cycle;Max_cycle;Signal;HPM_P1;HPM_P2
2023/04/27 00:02:25;;;;;;;11.30;3.60;;;2.80;99.90;;;;;;4880875;28;94485;-31
2023/04/27 00:04:51;;;;;;;4.28;2.85;;;2.90;99.90;;;;;;4881970;28;93404;-32
2023/04/27 00:07:17;;;;;;;5.85;3.40;;;2.80;99.90;;;;;;4881311;28;93250;-33
2023/04/27 00:09:43;;;;;;;8.77;3.63;;;2.70;99.90;;;;;;4881329;28;94453;-35
2023/04/27 00:12:08;;;;;;;8.85;4.40;;;2.70;99.90;;;;;;4869360;28;94641;-30
2023/04/27 00:14:34;;;;;;;5.68;3.58;;;2.60;99.90;;;;;;4882135;28;94578;-29
2023/04/27 00:17:00;;;;;;;6.22;3.83;;;2.60;99.90;;;;;;4882018;28;93877;-31
2023/04/27 00:19:27;;;;;;;4.15;3.35;;;2.60;99.90;;;;;;4880410;28;96389;-31
2023/04/27 00:21:52;;;;;;;6.38;4.03;;;2.60;99.90;;;;;;4880724;28;95116;-32
2023/04/27 00:24:18;;;;;;;3.97;2.95;;;2.50;99.90;;;;;;4882209;28;94211;-29
2023/04/27 00:26:43;;;;;;;6.80;4.45;;;2.50;99.90;;;;;;4881053;28;92864;-31
2023/04/27 00:29:09;;;;;;;11.48;4.22;;;2.50;99.90;;;;;;4881587;28;94996;-32
2023/04/27 00:31:35;;;;;;;5.22;3.13;;;2.60;99.90;;;;;;4880892;28;94849;-34
2023/04/27 00:34:00;;;;;;;4.75;3.28;;;2.60;99.90;;;;;;4881405;28;94281;-32
2023/04/27 00:36:26;;;;;;;3.92;3.53;;;2.60;99.90;;;;;;4880852;28;93358;-32
2023/04/27 00:38:52;;;;;;;4.63;4.10;;;2.60;99.90;;;;;;4880718;28;94415;-33
2023/04/27 00:41:17;;;;;;;9.70;3.75;;;2.50;99.90;;;;;;4881298;28;94169;-32
2023/04/27 00:43:44;;;;;;;6.50;3.35;;;2.60;99.90;;;;;;4880657;28;94525;-33
2023/04/27 00:46:12;;;;;;;10.50;5.18;;;2.50;99.90;;;;;;4880384;28;93023;-31
2023/04/27 00:48:38;;;;;;;13.75;4.53;;;2.50;99.90;;;;;;4881397;28;94691;-34
2023/04/27 00:51:05;;;;;;;6.18;2.95;;;2.50;99.90;;;;;;4880140;28;94781;-32
2023/04/27 00:53:31;;;;;;;4.93;4.10;;;2.40;99.90;;;;;;4880737;28;93894;-34
2023/04/27 00:55:57;;;;;;;6.47;3.78;;;2.40;99.90;;;;;;4881073;28;92741;-35
2023/04/27 00:58:23;;;;;;;8.38;4.07;;;2.50;99.90;;;;;;4880780;28;93451;-29
2023/04/27 01:00:49;;;;;;;6.25;4.13;;;2.40;99.90;;;;;;4881088;28;94483;-35
2023/04/27 01:03:16;;;;;;;10.07;4.55;;;2.40;99.90;;;;;;4881198;28;92191;-29
2023/04/27 01:05:42;;;;;;;6.03;4.65;;;2.50;99.90;;;;;;4880060;28;93160;-35
2023/04/27 01:08:08;;;;;;;7.18;3.97;;;2.50;99.90;;;;;;4880463;28;96001;-31
2023/04/27 01:10:34;;;;;;;5.20;4.30;;;2.50;99.90;;;;;;4877157;28;95586;-33
2023/04/27 01:12:59;;;;;;;4.85;4.00;;;2.50;99.90;;;;;;4871611;28;95155;-31
2023/04/27 01:15:25;;;;;;;6.55;4.50;;;2.50;99.90;;;;;;4879943;28;92785;-33
2023/04/27 01:17:58;;;;;;;7.20;3.28;;;2.50;99.90;;;;;;4880216;28;94630;-30
2023/04/27 01:20:25;;;;;;;6.82;4.70;;;2.40;99.90;;;;;;4880803;28;94543;-31
2023/04/27 01:22:52;;;;;;;8.90;4.15;;;2.50;99.90;;;;;;4881009;28;94030;-31
2023/04/27 01:25:19;;;;;;;6.25;5.03;;;2.50;99.90;;;;;;4880106;28;92334;-35
2023/04/27 01:27:44;;;;;;;5.88;4.25;;;2.50;99.90;;;;;;4880206;28;94488;-33
2023/04/27 01:30:10;;;;;;;5.05;3.53;;;2.40;99.90;;;;;;4894296;28;94413;-29
2023/04/27 01:32:37;;;;;;;13.35;5.45;;;2.40;99.90;;;;;;4880936;28;93073;-32
2023/04/27 01:35:03;;;;;;;7.15;4.20;;;2.50;99.90;;;;;;4880050;28;94492;-30
2023/04/27 01:37:30;;;;;;;4.95;3.70;;;2.50;99.90;;;;;;4879295;28;95528;-32
2023/04/27 01:39:55;;;;;;;10.13;4.25;;;2.50;99.90;;;;;;4879907;28;94843;-36
2023/04/27 01:42:21;;;;;;;6.05;4.45;;;2.50;99.90;;;;;;4880758;28;94088;-32
2023/04/27 01:44:47;;;;;;;7.60;4.45;;;2.60;99.90;;;;;;4880302;28;94371;-34
2023/04/27 01:47:16;;;;;;;5.35;4.20;;;2.60;99.90;;;;;;4880198;28;95308;-31
2023/04/27 01:49:41;;;;;;;9.43;5.45;;;2.60;99.90;;;;;;4880420;28;93172;-29
2023/04/27 01:52:07;;;;;;;7.25;4.63;;;2.70;99.90;;;;;;4879096;28;94789;-30
2023/04/27 01:54:33;;;;;;;7.03;4.93;;;2.70;99.90;;;;;;4879963;28;93112;-30
2023/04/27 01:56:58;;;;;;;7.68;3.70;;;2.70;99.90;;;;;;4879304;28;95184;-31
2023/04/27 01:59:24;;;;;;;11.18;5.05;;;2.70;99.90;;;;;;4879342;28;93580;-36
2023/04/27 02:01:50;;;;;;;13.27;5.00;;;2.80;99.90;;;;;;4880248;28;94276;-33
2023/04/27 02:04:15;;;;;;;5.35;3.92;;;2.80;99.90;;;;;;4878807;28;94530;-35
2023/04/27 02:06:41;;;;;;;7.82;5.10;;;2.80;99.90;;;;;;4880320;28;94548;-29
2023/04/27 02:09:06;;;;;;;14.88;4.78;;;2.70;99.90;;;;;;4879128;28;94025;-31
2023/04/27 02:11:32;;;;;;;9.50;5.13;;;2.70;99.90;;;;;;4869367;28;94443;-31
2023/04/27 02:13:57;;;;;;;9.50;4.82;;;2.70;99.90;;;;;;4878522;28;93963;-30
2023/04/27 02:16:23;;;;;;;4.97;4.30;;;2.70;99.90;;;;;;4879998;28;95380;-35
2023/04/27 02:18:49;;;;;;;5.82;4.65;;;2.60;99.90;;;;;;4879521;28;93407;-31
2023/04/27 02:21:14;;;;;;;16.50;5.53;;;2.60;99.90;;;;;;4874771;28;93717;-36
2023/04/27 02:23:40;;;;;;;6.60;5.40;;;2.60;99.90;;;;;;4877863;28;94591;-31
2023/04/27 02:26:06;;;;;;;15.32;5.95;;;2.50;99.90;;;;;;4879154;28;94292;-35
2023/04/27 02:28:31;;;;;;;6.75;5.03;;;2.50;99.90;;;;;;4879563;28;94801;-30
2023/04/27 02:30:57;;;;;;;5.65;4.18;;;2.40;99.90;;;;;;4879378;28;94626;-30
2023/04/27 02:33:23;;;;;;;8.45;5.97;;;2.30;99.90;;;;;;4879889;28;92555;-32
2023/04/27 02:35:48;;;;;;;11.10;5.20;;;2.30;99.90;;;;;;4879211;28;94924;-30
2023/04/27 02:38:14;;;;;;;13.02;4.43;;;2.30;99.90;;;;;;4878519;28;94704;-34
2023/04/27 02:40:40;;;;;;;7.18;4.15;;;2.30;99.90;;;;;;4880013;28;93178;-34
2023/04/27 02:43:05;;;;;;;6.93;5.38;;;2.30;99.90;;;;;;4879328;28;93182;-33
2023/04/27 02:45:35;;;;;;;5.28;4.78;;;2.30;99.90;;;;;;4879253;28;95505;-31
2023/04/27 02:48:00;;;;;;;4.90;4.07;;;2.20;99.90;;;;;;4879273;28;96342;-32
2023/04/27 02:50:26;;;;;;;13.25;5.40;;;2.20;99.90;;;;;;4879013;28;93323;-32
2023/04/27 02:52:52;;;;;;;8.68;4.95;;;2.10;99.90;;;;;;4879118;28;92948;-31
2023/04/27 02:55:20;;;;;;;7.80;4.85;;;2.20;99.90;;;;;;4878272;28;96700;-29
2023/04/27 02:57:45;;;;;;;6.35;4.35;;;2.20;99.90;;;;;;4879155;28;94558;-34
2023/04/27 03:00:11;;;;;;;11.00;5.47;;;2.10;99.90;;;;;;4879310;28;94155;-33
2023/04/27 03:02:37;;;;;;;7.65;5.65;;;2.20;99.90;;;;;;4879584;28;92468;-31
2023/04/27 03:05:04;;;;;;;7.93;5.95;;;2.10;99.90;;;;;;4878554;28;96180;-33
2023/04/27 03:07:30;;;;;;;9.68;5.35;;;2.10;99.90;;;;;;4878172;28;94460;-31
2023/04/27 03:09:56;;;;;;;8.90;4.35;;;2.10;99.90;;;;;;4879196;28;95459;-32
2023/04/27 03:12:21;;;;;;;10.80;6.30;;;2.10;99.90;;;;;;4865393;28;94589;-35
2023/04/27 03:14:47;;;;;;;5.70;4.95;;;2.10;99.90;;;;;;4879545;28;94710;-29
2023/04/27 03:17:12;;;;;;;5.28;4.07;;;2.10;99.90;;;;;;4878682;28;94472;-30
2023/04/27 03:19:38;;;;;;;6.22;4.63;;;2.10;99.90;;;;;;4879820;28;93203;-31
2023/04/27 03:22:03;;;;;;;10.55;6.13;;;2.10;99.90;;;;;;4878467;28;94882;-31
2023/04/27 03:24:29;;;;;;;8.52;5.28;;;2.10;99.90;;;;;;4879522;28;94164;-30
2023/04/27 03:26:55;;;;;;;10.40;6.40;;;2.00;99.90;;;;;;4878981;28;94028;-33
2023/04/27 03:29:21;;;;;;;6.75;5.68;;;2.00;99.90;;;;;;4879499;28;94265;-31
2023/04/27 03:31:46;;;;;;;6.28;5.30;;;1.90;99.90;;;;;;4878793;28;93140;-31
2023/04/27 03:34:12;;;;;;;7.65;4.15;;;2.00;99.90;;;;;;4877505;28;95548;-31
2023/04/27 03:36:37;;;;;;;6.45;5.28;;;2.00;99.90;;;;;;4879043;28;95498;-35
2023/04/27 03:39:03;;;;;;;7.75;5.25;;;2.00;99.90;;;;;;4878742;28;92606;-32
2023/04/27 03:41:29;;;;;;;7.00;4.35;;;2.00;99.90;;;;;;4878691;28;94528;-34
2023/04/27 03:43:54;;;;;;;9.27;5.43;;;2.00;99.90;;;;;;4878939;28;94591;-32
2023/04/27 03:46:20;;;;;;;7.93;5.70;;;2.00;99.90;;;;;;4877775;28;93419;-32
2023/04/27 03:48:46;;;;;;;7.95;5.60;;;2.00;99.90;;;;;;4879434;28;94189;-31
2023/04/27 03:51:12;;;;;;;8.32;4.90;;;2.00;99.90;;;;;;4878237;28;92879;-30
2023/04/27 03:53:37;;;;;;;7.22;5.50;;;1.90;99.90;;;;;;4879129;28;94783;-31
2023/04/27 03:56:03;;;;;;;11.40;6.75;;;2.00;99.90;;;;;;4878769;28;93954;-32
2023/04/27 03:58:29;;;;;;;7.32;4.57;;;1.90;99.90;;;;;;4877650;28;94821;-36
2023/04/27 04:00:56;;;;;;;6.72;5.82;;;1.90;99.90;;;;;;4878743;28;94493;-33
2023/04/27 04:03:21;;;;;;;10.77;5.45;;;2.00;99.90;;;;;;4912306;23;94924;-32
2023/04/27 04:05:47;;;;;;;9.98;6.10;;;2.00;99.90;;;;;;4898048;28;94155;-33
2023/04/27 04:08:13;;;;;;;9.05;6.70;;;1.90;99.90;;;;;;4897243;28;92188;-30
2023/04/27 04:10:38;;;;;;;7.90;5.57;;;1.90;99.90;;;;;;4892113;28;93890;-36
2023/04/27 04:13:04;;;;;;;8.70;6.28;;;1.90;99.90;;;;;;4889015;28;95178;-31
2023/04/27 04:15:29;;;;;;;6.30;4.78;;;1.90;99.90;;;;;;4897551;28;94094;-30
2023/04/27 04:17:55;;;;;;;6.80;4.55;;;2.00;99.90;;;;;;4901229;28;92162;-32
2023/04/27 04:20:21;;;;;;;7.82;4.85;;;2.00;99.90;;;;;;4900570;28;95017;-30
2023/04/27 04:22:47;;;;;;;7.18;5.20;;;2.00;99.90;;;;;;4900086;28;95193;-36
2023/04/27 04:25:12;;;;;;;7.55;5.00;;;2.00;99.90;;;;;;4900087;28;95947;-31
2023/04/27 04:27:38;;;;;;;7.22;5.25;;;2.00;99.90;;;;;;4900903;28;94089;-33
2023/04/27 04:30:05;;;;;;;8.68;5.03;;;2.00;99.90;;;;;;4900747;28;92139;-32
2023/04/27 04:32:32;;;;;;;6.00;4.90;;;2.10;99.90;;;;;;4900705;28;94440;-32
2023/04/27 04:35:00;;;;;;;10.45;6.68;;;2.10;99.90;;;;;;4900311;28;94586;-30
2023/04/27 04:37:26;;;;;;;7.85;5.82;;;2.20;99.90;;;;;;4900981;28;94149;-33
2023/04/27 04:39:52;;;;;;;5.20;3.63;;;2.30;99.90;;;;;;4901065;28;91467;-31
2023/04/27 04:42:17;;;;;;;6.28;5.10;;;2.30;99.90;;;;;;4900108;28;93568;-31
2023/04/27 04:44:43;;;;;;;11.15;6.28;;;2.40;99.90;;;;;;4900490;28;94191;-34
2023/04/27 04:47:09;;;;;;;6.55;4.72;;;2.40;99.90;;;;;;4899511;28;95342;-31
2023/04/27 04:49:35;;;;;;;8.10;5.82;;;2.50;99.90;;;;;;4899966;28;94627;-35
2023/04/27 04:52:01;;;;;;;5.07;4.20;;;2.50;99.90;;;;;;4900526;28;96465;-30
2023/04/27 04:54:26;;;;;;;7.93;5.13;;;2.50;99.90;;;;;;4900051;28;94901;-31
2023/04/27 04:56:52;;;;;;;7.30;5.15;;;2.50;99.90;;;;;;4901011;28;93496;-34
2023/04/27 04:59:17;;;;;;;7.68;5.40;;;2.50;99.90;;;;;;4899700;28;92153;-32
2023/04/27 05:01:43;;;;;;;8.40;5.72;;;2.50;99.90;;;;;;4900405;28;94687;-35
2023/04/27 05:04:09;;;;;;;8.55;6.15;;;2.60;99.90;;;;;;4899697;28;94290;-32
2023/04/27 05:06:35;;;;;;;11.85;5.38;;;2.50;99.90;;;;;;4900885;28;92554;-33
2023/04/27 05:09:00;;;;;;;8.40;5.32;;;2.50;99.90;;;;;;4899684;28;94068;-30
2023/04/27 05:11:26;;;;;;;15.40;5.78;;;2.50;99.90;;;;;;4883874;28;95167;-31
2023/04/27 05:13:52;;;;;;;7.53;5.07;;;2.40;99.90;;;;;;4889788;28;96257;-32
2023/04/27 05:16:18;;;;;;;10.57;5.68;;;2.40;99.90;;;;;;4896348;28;94790;-29
2023/04/27 05:18:43;;;;;;;9.25;7.35;;;2.30;99.90;;;;;;4893649;28;94828;-35
2023/04/27 05:21:19;;;;;;;15.73;8.60;;;2.30;99.90;;;;;;4899012;28;93008;-33
2023/04/27 05:23:45;;;;;;;6.93;5.47;;;2.30;99.90;;;;;;4899066;28;94422;-29
2023/04/27 05:26:15;;;;;;;9.75;6.88;;;2.30;99.90;;;;;;4899850;28;94620;-36
2023/04/27 05:28:41;;;;;;;10.45;5.90;;;2.50;99.90;;;;;;4899624;28;92400;-32
2023/04/27 05:31:07;;;;;;;8.50;5.88;;;2.50;99.90;;;;;;4899228;28;96009;-30
2023/04/27 05:33:32;;;;;;;13.32;5.22;;;2.60;99.90;;;;;;4898980;28;94369;-31
2023/04/27 05:35:58;;;;;;;7.82;5.50;;;2.60;99.90;;;;;;4899421;28;93770;-29
2023/04/27 05:38:24;;;;;;;9.95;5.93;;;2.70;99.90;;;;;;4899187;28;93726;-29
2023/04/27 05:40:57;;;;;;;8.07;4.90;;;2.70;99.90;;;;;;4899968;28;93467;-32
2023/04/27 05:43:24;;;;;;;10.52;6.90;;;2.70;99.90;;;;;;4887241;28;94439;-30
2023/04/27 05:45:49;;;;;;;14.30;7.97;;;2.70;99.90;;;;;;4899774;28;93249;-33
2023/04/27 05:48:15;;;;;;;6.10;5.10;;;2.70;99.90;;;;;;4898825;28;92276;-32
2023/04/27 05:50:41;;;;;;;13.13;6.10;;;2.80;99.90;;;;;;4896756;28;95539;-30
2023/04/27 05:53:06;;;;;;;8.10;5.80;;;2.80;99.90;;;;;;4889170;28;95085;-32
2023/04/27 05:55:32;;;;;;;11.52;6.05;;;2.90;99.90;;;;;;4888907;28;92152;-31
2023/04/27 05:57:58;;;;;;;11.32;6.07;;;3.00;99.90;;;;;;4898971;28;93173;-32
2023/04/27 06:00:23;;;;;;;8.43;6.88;;;3.20;99.90;;;;;;4898948;28;95805;-31
2023/04/27 06:02:50;;;;;;;7.50;5.40;;;3.30;99.90;;;;;;4899088;28;95178;-30
2023/04/27 06:05:16;;;;;;;10.05;5.82;;;3.50;99.90;;;;;;4898499;28;94118;-30
2023/04/27 06:07:42;;;;;;;7.90;5.72;;;3.70;99.90;;;;;;4896798;28;92368;-30
2023/04/27 06:10:09;;;;;;;10.63;6.50;;;3.90;99.90;;;;;;4890723;28;93019;-32
2023/04/27 06:12:35;;;;;;;11.02;6.22;;;4.10;99.90;;;;;;4890305;28;94708;-32
2023/04/27 06:15:06;;;;;;;9.40;6.13;;;4.20;99.90;;;;;;4891292;28;94758;-31
2023/04/27 06:17:33;;;;;;;16.27;7.97;;;4.40;99.90;;;;;;4896520;28;93769;-31
2023/04/27 06:19:58;;;;;;;8.60;5.85;;;4.50;99.90;;;;;;4896799;28;94276;-33
2023/04/27 06:22:24;;;;;;;8.75;5.78;;;4.70;99.90;;;;;;4895533;28;94948;-30
2023/04/27 06:24:49;;;;;;;8.57;5.00;;;4.90;99.90;;;;;;4893122;28;94278;-34
2023/04/27 06:27:15;;;;;;;9.82;5.97;;;5.10;99.90;;;;;;4892518;28;93382;-32
2023/04/27 06:29:40;;;;;;;6.90;5.05;;;5.20;99.90;;;;;;4896850;28;94792;-30
2023/04/27 06:32:06;;;;;;;8.57;5.97;;;5.40;99.90;;;;;;4896424;28;94398;-35
2023/04/27 06:34:32;;;;;;;7.47;4.90;;;5.70;99.90;;;;;;4896531;28;93417;-33
2023/04/27 06:36:58;;;;;;;8.23;5.07;;;5.90;99.90;;;;;;4896652;28;92935;-34
2023/04/27 06:39:24;;;;;;;6.80;5.10;;;6.20;99.90;;;;;;4895146;28;94892;-31
2023/04/27 06:41:49;;;;;;;10.50;5.80;;;6.50;99.90;;;;;;4895912;28;94381;-29
2023/04/27 06:44:15;;;;;;;8.05;5.35;;;6.70;99.90;;;;;;4890691;28;93205;-35
2023/04/27 06:46:40;;;;;;;9.98;5.78;;;6.90;99.90;;;;;;4892911;28;93512;-32
2023/04/27 06:49:06;;;;;;;5.72;4.60;;;7.20;99.90;;;;;;4896281;28;96152;-32
2023/04/27 06:51:31;;;;;;;6.10;4.82;;;7.30;99.90;;;;;;4894650;28;95447;-31
2023/04/27 06:53:57;;;;;;;10.02;5.45;;;7.60;99.90;;;;;;4894528;28;93513;-32
2023/04/27 06:56:22;;;;;;;7.85;5.47;;;8.00;99.90;;;;;;4894449;28;93060;-30
2023/04/27 06:58:48;;;;;;;13.90;6.32;;;8.30;99.90;;;;;;4894509;28;94667;-31
2023/04/27 07:01:14;;;;;;;12.55;6.60;;;8.50;99.90;;;;;;4895485;28;94742;-31
2023/04/27 07:03:40;;;;;;;6.20;5.20;;;8.60;99.90;;;;;;4894233;28;93161;-32
2023/04/27 07:06:05;;;;;;;10.70;6.18;;;8.90;99.90;;;;;;4896425;28;94057;-32
2023/04/27 07:08:32;;;;;;;8.35;5.65;;;9.10;99.90;;;;;;4895592;28;94312;-32
2023/04/27 07:10:57;;;;;;;5.93;4.25;;;9.40;99.90;;;;;;4895821;28;94476;-31
2023/04/27 07:13:23;;;;;;;6.57;4.05;;;9.60;99.90;;;;;;4896053;28;93680;-34
2023/04/27 07:15:56;;;;;;;5.30;4.13;;;9.80;99.90;;;;;;4895713;28;93078;-33
2023/04/27 07:18:22;;;;;;;5.65;3.67;;;10.10;99.90;;;;;;4895576;28;94640;-31
2023/04/27 07:20:47;;;;;;;5.32;4.68;;;10.00;99.90;;;;;;4895289;28;93609;-31
2023/04/27 07:23:13;;;;;;;4.85;3.75;;;10.00;99.90;;;;;;4896459;28;94401;-30
2023/04/27 07:25:39;;;;;;;6.90;4.00;;;10.40;99.90;;;;;;4891903;28;92782;-34
2023/04/27 07:28:04;;;;;;;12.15;6.10;;;10.20;99.90;;;;;;4895231;28;94700;-31
2023/04/27 07:30:33;;;;;;;5.82;3.75;;;10.60;99.90;;;;;;4895441;28;95778;-34
2023/04/27 07:32:59;;;;;;;6.55;3.78;;;11.00;99.90;;;;;;4896225;28;94360;-35
2023/04/27 07:35:25;;;;;;;3.58;3.15;;;11.30;99.90;;;;;;4895313;28;94226;-35
2023/04/27 07:37:51;;;;;;;5.40;3.83;;;11.30;99.90;;;;;;4895413;28;96034;-32
2023/04/27 07:40:17;;;;;;;5.05;4.55;;;11.30;99.90;;;;;;4895119;28;93957;-30
2023/04/27 07:42:45;;;;;;;5.63;3.95;;;11.70;99.90;;;;;;4895852;28;93066;-32
2023/04/27 07:45:11;;;;;;;8.43;4.47;;;11.70;99.90;;;;;;4895416;28;92296;-33
2023/04/27 07:47:37;;;;;;;5.70;3.33;;;11.50;97.00;;;;;;4894812;28;95164;-32
2023/04/27 07:50:06;;;;;;;4.35;3.03;;;11.70;99.90;;;;;;4896791;28;95208;-32
2023/04/27 07:52:32;;;;;;;5.63;3.90;;;11.90;99.90;;;;;;4898679;28;92378;-33
2023/04/27 07:54:57;;;;;;;4.93;4.22;;;11.90;97.80;;;;;;4882243;28;92624;-30
2023/04/27 07:57:23;;;;;;;4.20;3.08;;;12.00;83.70;;;;;;4880890;28;94646;-31
2023/04/27 07:59:48;;;;;;;4.07;3.72;;;12.30;83.70;;;;;;4891442;28;94553;-30
2023/04/27 08:02:14;;;;;;;4.07;3.55;;;12.40;87.70;;;;;;4878849;28;93069;-31
2023/04/27 08:04:40;;;;;;;3.88;3.55;;;12.60;85.20;;;;;;4892084;28;94569;-35
2023/04/27 08:07:05;;;;;;;4.10;3.30;;;12.80;82.80;;;;;;4885025;28;94878;-29
2023/04/27 08:09:31;;;;;;;7.78;3.33;;;13.00;82.70;;;;;;4885373;28;95448;-31
2023/04/27 08:11:57;;;;;;;4.30;3.65;;;13.00;78.60;;;;;;4880470;28;93278;-30
2023/04/27 08:14:22;;;;;;;4.75;3.35;;;13.10;76.40;;;;;;4879236;28;94596;-32
2023/04/27 08:16:50;;;;;;;3.88;3.25;;;13.10;74.60;;;;;;4877240;28;94822;-31
2023/04/27 08:19:17;;;;;;;5.07;3.70;;;13.40;78.50;;;;;;4879647;28;93665;-32
2023/04/27 08:21:43;;;;;;;6.47;3.47;;;13.40;76.10;;;;;;4879422;28;93355;-33
2023/04/27 08:24:09;;;;;;;4.53;3.63;;;13.40;76.30;;;;;;4881113;28;92986;-31
2023/04/27 08:26:34;;;;;;;7.20;3.50;;;13.10;75.00;;;;;;4888061;28;95077;-34
2023/04/27 08:29:01;;;;;;;3.25;2.95;;;13.10;71.20;;;;;;4881377;28;95347;-35
2023/04/27 08:31:26;;;;;;;5.70;3.72;;;13.00;77.40;;;;;;4889077;28;93116;-34
2023/04/27 08:33:52;;;;;;;4.40;3.67;;;13.60;74.50;;;;;;4878755;28;92306;-31
2023/04/27 08:36:23;;;;;;;6.88;3.90;;;13.50;71.10;;;;;;4879572;28;94872;-32
2023/04/27 08:38:50;;;;;;;4.10;3.22;;;13.60;73.10;;;;;;4878684;28;94348;-32
2023/04/27 08:41:23;;;;;;;5.47;3.35;;;13.70;73.70;;;;;;4879774;28;93840;-33
2023/04/27 08:43:50;;;;;;;3.50;3.20;;;13.70;69.20;;;;;;4891763;28;93794;-34
2023/04/27 08:46:25;;;;;;;5.07;3.58;;;13.90;69.70;;;;;;4878755;28;94419;-30
2023/04/27 08:48:52;;;;;;;5.75;4.93;;;13.90;68.20;;;;;;4877808;28;95850;-33
2023/04/27 08:51:18;;;;;;;7.72;4.47;;;13.80;71.00;;;;;;4878571;28;94611;-31
2023/04/27 08:53:52;;;;;;;5.25;4.32;;;14.10;70.50;;;;;;4879419;28;92986;-32
2023/04/27 08:56:19;;;;;;;5.18;4.10;;;13.60;69.50;;;;;;4879361;28;94965;-34
2023/04/27 08:58:45;;;;;;;6.30;4.10;;;13.70;66.90;;;;;;4889509;28;93555;-31
2023/04/27 09:01:11;;;;;;;5.18;3.90;;;13.80;70.90;;;;;;4878768;28;94089;-34
2023/04/27 09:03:37;;;;;;;9.20;4.75;;;14.10;67.90;;;;;;4909238;28;92990;-31
2023/04/27 09:06:04;;;;;;;4.20;3.80;;;14.30;68.90;;;;;;4897945;28;94717;-34
2023/04/27 09:08:47;;;;;;;4.85;4.35;;;14.50;68.20;;;;;;4897046;28;94640;-31
2023/04/27 09:11:14;;;;;;;4.18;3.25;;;14.50;68.40;;;;;;4897758;28;92730;-30
2023/04/27 09:13:43;;;;;;;7.13;4.47;;;14.70;68.10;;;;;;4897628;28;93220;-33
2023/04/27 09:16:11;;;;;;;9.13;4.25;;;14.30;63.70;;;;;;4884419;28;95220;-32
2023/04/27 09:18:42;;;;;;;6.70;4.78;;;13.90;64.30;;;;;;4880021;28;93990;-32
2023/04/27 09:21:08;;;;;;;5.88;5.07;;;14.10;65.70;;;;;;4894569;28;92971;-33
2023/04/27 09:23:37;;;;;;;5.70;4.70;;;14.40;66.80;;;;;;4897604;28;94196;-34
2023/04/27 09:26:06;;;;;;;6.20;4.85;;;14.40;66.50;;;;;;4897013;28;94944;-35
2023/04/27 09:28:33;;;;;;;6.00;4.38;;;14.00;65.30;;;;;;4897310;28;94511;-33
2023/04/27 09:31:01;;;;;;;7.95;4.50;;;14.50;66.90;;;;;;4897585;28;94924;-33
2023/04/27 09:33:37;;;;;;;7.43;4.07;;;14.30;65.50;;;;;;4897545;28;93400;-32
2023/04/27 09:36:05;;;;;;;4.40;4.00;;;14.50;66.50;;;;;;4896608;28;93351;-32
2023/04/27 09:38:31;;;;;;;8.40;4.68;;;14.50;68.00;;;;;;4896727;28;94833;-32
2023/04/27 09:40:59;;;;;;;4.88;4.47;;;14.70;65.00;;;;;;4897345;28;93069;-30
2023/04/27 09:43:26;;;;;;;10.70;5.80;;;14.90;65.50;;;;;;4895804;28;94055;-34
2023/04/27 09:45:56;;;;;;;6.82;4.95;;;14.80;66.20;;;;;;4896837;28;92986;-32
2023/04/27 09:48:23;;;;;;;5.57;5.07;;;14.60;66.40;;;;;;4896150;28;93532;-32
2023/04/27 09:50:50;;;;;;;6.82;5.30;;;14.90;66.50;;;;;;4897722;28;92260;-31
2023/04/27 09:53:19;;;;;;;6.80;5.90;;;14.80;67.20;;;;;;4896677;28;93440;-32
2023/04/27 09:55:55;;;;;;;;;;;14.80;66.60;;;;;;4896990;28;95162;-32
2023/04/27 09:58:53;;;;;;;8.98;4.30;;;14.40;64.40;;;;;;4898164;28;94743;-29
2023/04/27 10:01:48;;;;;;;5.68;5.07;;;14.60;66.20;;;;;;4883038;28;92856;-33
2023/04/27 10:04:26;;;;;;;6.40;4.90;;;14.30;64.50;;;;;;4877717;28;93607;-32
2023/04/27 10:07:02;;;;;;;8.70;5.77;;;13.90;64.10;;;;;;4901623;28;95467;-30
2023/04/27 10:09:38;;;;;;;6.57;5.00;;;14.30;63.20;;;;;;4877455;28;95235;-31
2023/04/27 10:12:18;;;;;;;5.43;4.35;;;14.40;63.80;;;;;;4877239;28;93819;-32
2023/04/27 10:14:48;;;;;;;8.35;5.72;;;14.40;63.80;;;;;;4889058;28;94126;-30
2023/04/27 10:17:15;;;;;;;6.15;5.63;;;14.50;64.60;;;;;;4879073;28;95536;-29
2023/04/27 10:19:53;;;;;;;6.40;5.07;;;14.30;65.50;;;;;;4876800;28;94646;-31
2023/04/27 10:22:19;;;;;;;7.03;4.80;;;14.60;64.20;;;;;;4876007;28;93046;-33
2023/04/27 10:24:49;;;;;;;5.53;4.88;;;14.10;62.50;;;;;;4885568;28;92345;-32
2023/04/27 10:27:18;;;;;;;8.52;5.78;;;14.50;65.30;;;;;;4882264;28;95309;-34
2023/04/27 10:29:46;;;;;;;10.13;5.65;;;14.40;66.10;;;;;;4877382;28;94793;-32
2023/04/27 10:32:20;;;;;;;5.50;4.95;;;14.50;65.00;;;;;;4877324;28;95278;-32
2023/04/27 10:34:47;;;;;;;7.57;5.82;;;14.50;66.00;;;;;;4877592;28;94070;-30
2023/04/27 10:37:14;;;;;;;6.63;5.23;;;14.40;63.10;;;;;;4877523;28;94195;-31
2023/04/27 10:39:41;;;;;;;6.78;4.88;;;14.60;65.70;;;;;;4877534;28;94448;-30
2023/04/27 10:42:07;;;;;;;4.93;4.43;;;14.70;65.00;;;;;;4876562;28;93542;-32
2023/04/27 10:44:34;;;;;;;7.38;5.45;;;14.70;64.20;;;;;;4877503;28;93508;-33
2023/04/27 10:47:23;;;;;;;7.93;5.30;;;14.80;64.50;;;;;;4880434;28;95147;-31
2023/04/27 10:49:53;;;;;;;5.97;5.15;;;14.90;64.10;;;;;;4884440;28;93417;-32
2023/04/27 10:52:18;;;;;;;6.57;5.57;;;14.60;64.20;;;;;;4884876;28;93698;-32
2023/04/27 10:54:45;;;;;;;9.65;5.18;;;14.40;63.70;;;;;;4882355;28;95054;-33
2023/04/27 10:57:11;;;;;;;7.82;5.53;;;14.60;63.40;;;;;;4877354;28;95594;-32
2023/04/27 10:59:48;;;;;;;6.18;5.38;;;14.70;64.80;;;;;;4876130;28;95399;-33
2023/04/27 11:02:15;;;;;;;10.30;5.83;;;14.80;61.70;;;;;;4877393;28;94480;-31
2023/04/27 11:04:41;;;;;;;5.68;4.95;;;14.50;64.10;;;;;;4881787;28;94009;-32
2023/04/27 11:07:08;;;;;;;6.15;5.18;;;14.80;65.40;;;;;;4884289;28;94525;-34
2023/04/27 11:09:35;;;;;;;7.97;5.60;;;14.80;64.30;;;;;;4878973;28;94974;-33
2023/04/27 11:12:01;;;;;;;6.03;5.43;;;14.70;62.40;;;;;;4884499;28;93135;-32
2023/04/27 11:14:28;;;;;;;6.97;5.97;;;14.70;63.50;;;;;;4876431;28;91657;-32
2023/04/27 11:16:54;;;;;;;7.28;5.78;;;14.90;65.20;;;;;;4876029;28;95050;-33
2023/04/27 11:19:19;;;;;;;7.40;5.28;;;14.60;63.30;;;;;;4878712;28;94338;-34
2023/04/27 11:21:45;;;;;;;6.20;5.05;;;14.50;62.80;;;;;;4888038;28;93886;-31
2023/04/27 11:24:11;;;;;;;5.97;5.10;;;13.90;61.70;;;;;;4876122;28;94425;-36
2023/04/27 11:26:37;;;;;;;6.63;5.97;;;14.20;63.00;;;;;;4880312;28;94561;-31
2023/04/27 11:29:08;;;;;;;11.88;6.15;;;13.70;60.60;;;;;;4880135;28;94250;-30
2023/04/27 11:31:40;;;;;;;9.48;4.93;;;13.90;62.10;;;;;;4890481;28;94553;-31
2023/04/27 11:34:07;;;;;;;7.78;5.95;;;14.10;62.00;;;;;;4886559;28;93642;-33
2023/04/27 11:36:32;;;;;;;8.80;6.55;;;14.00;62.20;;;;;;4887459;28;94225;-31
2023/04/27 11:38:58;;;;;;;7.60;5.57;;;14.10;61.60;;;;;;4880706;28;92765;-35
2023/04/27 11:41:35;;;;;;;11.85;5.85;;;14.00;61.20;;;;;;4880639;28;94544;-31
2023/04/27 11:44:08;;;;;;;9.45;6.05;;;13.90;61.00;;;;;;4891894;28;92683;-35
2023/04/27 11:46:35;;;;;;;7.10;6.13;;;14.00;63.30;;;;;;4879524;28;95030;-29
2023/04/27 11:49:07;;;;;;;5.93;5.32;;;13.70;63.00;;;;;;4879749;28;95370;-30
2023/04/27 11:51:33;;;;;;;6.80;5.85;;;13.40;62.90;;;;;;4880481;28;92955;-30
2023/04/27 11:54:06;;;;;;;6.18;5.57;;;13.50;63.80;;;;;;4879871;28;93269;-32
2023/04/27 11:56:37;;;;;;;7.90;5.82;;;13.40;64.50;;;;;;4879638;28;95065;-32
2023/04/27 11:59:03;;;;;;;6.03;5.45;;;13.70;62.80;;;;;;4889736;28;94310;-32
2023/04/27 12:01:31;;;;;;;7.85;5.45;;;13.70;64.30;;;;;;4880982;28;92257;-34
2023/04/27 12:03:56;;;;;;;10.27;6.00;;;13.50;63.80;;;;;;4888788;28;92191;-30
2023/04/27 12:06:27;;;;;;;6.50;5.38;;;13.70;64.70;;;;;;4882693;28;94434;-32
2023/04/27 12:08:54;;;;;;;11.05;5.97;;;13.80;60.70;;;;;;4880382;28;94470;-30
2023/04/27 12:11:20;;;;;;;7.70;5.70;;;13.40;62.40;;;;;;4879481;28;94144;-31
2023/04/27 12:13:47;;;;;;;8.20;6.20;;;13.60;64.10;;;;;;4879131;28;94256;-31
2023/04/27 12:16:12;;;;;;;7.20;5.95;;;13.70;63.10;;;;;;4879236;28;94712;-31
2023/04/27 12:18:38;;;;;;;6.72;5.75;;;13.70;62.30;;;;;;4880519;28;94255;-32
2023/04/27 12:21:06;;;;;;;13.68;6.53;;;13.80;61.80;;;;;;4879589;28;93168;-33
2023/04/27 12:23:32;;;;;;;;;;;13.70;61.40;;;;;;4880686;28;94800;-30
2023/04/27 12:25:58;;;;;;;12.40;4.85;;;13.50;61.70;;;;;;4880642;28;94493;-35
2023/04/27 12:28:23;;;;;;;6.75;5.07;;;13.40;63.50;;;;;;4879207;28;94160;-35
2023/04/27 12:30:49;;;;;;;8.38;5.80;;;13.20;65.30;;;;;;4883445;28;94197;-30
2023/04/27 12:33:15;;;;;;;6.80;6.03;;;13.40;65.10;;;;;;4897557;28;93002;-31
2023/04/27 12:35:41;;;;;;;6.95;4.78;;;13.50;64.60;;;;;;4880694;28;94815;-31
2023/04/27 12:38:07;;;;;;;7.50;5.05;;;13.30;62.90;;;;;;4876751;28;95493;-34
2023/04/27 12:40:32;;;;;;;4.90;4.43;;;13.40;63.20;;;;;;4891717;28;93087;-32
2023/04/27 12:42:58;;;;;;;10.95;5.25;;;13.40;63.40;;;;;;4879815;28;95180;-31
2023/04/27 12:45:24;;;;;;;7.60;5.03;;;13.20;63.60;;;;;;4890673;28;94920;-31
2023/04/27 12:47:50;;;;;;;9.73;5.15;;;13.00;62.40;;;;;;4878677;28;94475;-34
2023/04/27 12:50:16;;;;;;;8.07;5.78;;;13.10;63.40;;;;;;4882882;28;94096;-34